createdAt,value
2023-05-19T00:00:34.824Z,10.70
2023-05-19T00:03:03.668Z,10.70
2023-05-19T00:05:32.290Z,10.60
2023-05-19T00:08:03.246Z,10.60
2023-05-19T00:10:33.289Z,10.60
2023-05-19T00:13:01.712Z,10.50
2023-05-19T00:15:31.698Z,10.50
2023-05-19T00:17:59.732Z,10.50
2023-05-19T00:20:27.161Z,10.40
2023-05-19T00:22:54.779Z,10.40
2023-05-19T00:25:22.579Z,10.40
2023-05-19T00:27:50.423Z,10.40
2023-05-19T00:30:18.692Z,10.40
2023-05-19T00:32:47.968Z,10.30
2023-05-19T00:35:16.020Z,10.30
2023-05-19T00:37:44.071Z,10.20
2023-05-19T00:40:12.227Z,10.20
2023-05-19T00:42:40.923Z,10.20
2023-05-19T00:45:09.932Z,10.20
2023-05-19T00:47:37.903Z,10.10
2023-05-19T00:50:09.847Z,10.20
2023-05-19T00:52:37.943Z,10.10
2023-05-19T00:55:08.255Z,10.10
2023-05-19T00:57:36.003Z,10.00
2023-05-19T01:00:04.683Z,10.00
2023-05-19T01:02:32.837Z,10.00
2023-05-19T01:05:00.831Z,10.00
2023-05-19T01:07:30.761Z,9.90
2023-05-19T01:09:58.509Z,9.90
2023-05-19T01:12:27.107Z,9.90
2023-05-19T01:14:54.696Z,9.90
2023-05-19T01:17:30.901Z,9.90
2023-05-19T01:20:05.285Z,9.90
2023-05-19T01:22:57.647Z,9.80
2023-05-19T01:26:10.016Z,9.80
2023-05-19T01:29:09.965Z,9.70
2023-05-19T01:31:42.464Z,9.70
2023-05-19T01:34:12.654Z,9.70
2023-05-19T01:36:45.094Z,9.70
2023-05-19T01:39:14.058Z,9.70
2023-05-19T01:41:52.784Z,9.60
2023-05-19T01:44:22.466Z,9.60
2023-05-19T01:46:52.159Z,9.60
2023-05-19T01:49:19.768Z,9.50
2023-05-19T01:51:47.590Z,9.50
2023-05-19T01:54:15.552Z,9.50
2023-05-19T01:56:50.192Z,9.50
2023-05-19T01:59:28.745Z,9.50
2023-05-19T02:02:06.409Z,9.50
2023-05-19T02:04:41.418Z,9.40
2023-05-19T02:07:15.864Z,9.40
2023-05-19T02:09:53.485Z,9.40
2023-05-19T02:12:32.805Z,9.40
2023-05-19T02:15:05.100Z,9.40
2023-05-19T02:17:37.038Z,9.40
2023-05-19T02:20:05.336Z,9.40
2023-05-19T02:22:33.058Z,9.30
2023-05-19T02:25:00.716Z,9.30
2023-05-19T02:27:28.592Z,9.30
2023-05-19T02:29:56.493Z,9.30
2023-05-19T02:32:24.004Z,9.30
2023-05-19T02:34:56.814Z,9.20
2023-05-19T02:37:25.482Z,9.20
2023-05-19T02:39:53.202Z,9.20
2023-05-19T02:42:21.211Z,9.20
2023-05-19T02:44:49.370Z,9.20
2023-05-19T02:47:16.789Z,9.20
2023-05-19T02:49:45.283Z,9.20
2023-05-19T02:52:14.858Z,9.20
2023-05-19T02:54:42.787Z,9.10
2023-05-19T02:57:11.392Z,9.10
2023-05-19T02:59:39.087Z,9.20
2023-05-19T03:02:06.547Z,9.20
2023-05-19T03:04:41.898Z,9.20
2023-05-19T03:07:15.775Z,9.20
2023-05-19T03:09:45.063Z,9.10
2023-05-19T03:12:12.765Z,9.10
2023-05-19T03:14:40.549Z,9.10
2023-05-19T03:17:08.775Z,9.10
2023-05-19T03:19:36.308Z,9.00
2023-05-19T03:22:04.174Z,9.00
2023-05-19T03:24:32.104Z,9.10
2023-05-19T03:27:06.818Z,9.00
2023-05-19T03:29:34.832Z,9.00
2023-05-19T03:32:02.929Z,9.00
2023-05-19T03:34:34.476Z,9.00
2023-05-19T03:37:02.396Z,9.00
2023-05-19T03:39:30.231Z,9.00
2023-05-19T03:41:58.366Z,9.00
2023-05-19T03:44:30.086Z,9.00
2023-05-19T03:46:57.902Z,9.00
2023-05-19T03:49:26.380Z,9.00
2023-05-19T03:51:54.334Z,9.00
2023-05-19T03:54:22.946Z,9.00
2023-05-19T03:56:50.588Z,9.00
2023-05-19T03:59:18.088Z,9.00
2023-05-19T04:01:48.025Z,8.90
2023-05-19T04:04:15.912Z,8.90
2023-05-19T04:06:43.671Z,8.90
2023-05-19T04:09:13.655Z,8.90
2023-05-19T04:11:41.550Z,8.90
2023-05-19T04:14:09.739Z,8.90
2023-05-19T04:16:38.106Z,8.90
2023-05-19T04:19:08.237Z,8.90
2023-05-19T04:21:36.210Z,8.90
2023-05-19T04:24:07.335Z,8.90
2023-05-19T04:26:35.435Z,8.90
2023-05-19T04:29:05.032Z,8.90
2023-05-19T04:31:34.770Z,8.90
2023-05-19T04:34:02.771Z,8.90
2023-05-19T04:36:32.025Z,8.90
2023-05-19T04:39:07.282Z,8.90
2023-05-19T04:41:35.509Z,8.90
2023-05-19T04:44:03.618Z,8.90
2023-05-19T04:46:31.492Z,8.90
2023-05-19T04:49:01.459Z,8.90
2023-05-19T04:51:33.878Z,8.90
2023-05-19T04:54:01.826Z,8.90
2023-05-19T04:56:30.643Z,8.90
2023-05-19T04:58:59.595Z,9.00
2023-05-19T05:01:27.392Z,9.00
2023-05-19T05:03:55.874Z,9.00
2023-05-19T05:06:23.950Z,9.10
2023-05-19T05:08:53.257Z,9.10
2023-05-19T05:11:22.259Z,9.10
2023-05-19T05:13:50.473Z,9.10
2023-05-19T05:16:19.063Z,9.20
2023-05-19T05:18:47.588Z,9.20
2023-05-19T05:21:16.140Z,9.20
2023-05-19T05:23:44.489Z,9.30
2023-05-19T05:26:28.816Z,9.30
2023-05-19T05:28:56.747Z,9.40
2023-05-19T05:31:24.646Z,9.40
2023-05-19T05:33:52.786Z,9.40
2023-05-19T05:36:20.637Z,9.50
2023-05-19T05:38:48.493Z,9.50
2023-05-19T05:41:18.485Z,9.60
2023-05-19T05:43:46.043Z,9.70
2023-05-19T05:46:13.809Z,9.70
2023-05-19T05:48:42.964Z,9.80
2023-05-19T05:51:11.016Z,9.90
2023-05-19T05:53:44.742Z,9.90
2023-05-19T05:56:13.848Z,10.00
2023-05-19T05:58:42.937Z,10.10
2023-05-19T06:01:13.653Z,10.10
2023-05-19T06:03:48.318Z,10.20
2023-05-19T06:06:16.563Z,10.30
2023-05-19T06:08:44.429Z,10.40
2023-05-19T06:11:12.384Z,10.50
2023-05-19T06:13:41.734Z,10.60
2023-05-19T06:16:10.858Z,10.70
2023-05-19T06:18:38.273Z,10.80
2023-05-19T06:21:06.679Z,10.90
2023-05-19T06:23:34.503Z,11.00
2023-05-19T06:26:02.437Z,11.10
2023-05-19T06:28:30.418Z,11.20
2023-05-19T06:30:57.898Z,11.40
2023-05-19T06:33:28.974Z,11.50
2023-05-19T06:35:57.140Z,11.70
2023-05-19T06:38:24.997Z,11.80
2023-05-19T06:40:52.581Z,11.90
2023-05-19T06:43:20.459Z,12.10
2023-05-19T06:45:49.963Z,12.30
2023-05-19T06:48:17.542Z,12.40
2023-05-19T06:50:50.884Z,12.60
2023-05-19T06:53:20.346Z,12.70
2023-05-19T06:55:59.437Z,12.70
2023-05-19T06:58:28.261Z,12.80
2023-05-19T07:00:58.374Z,12.80
2023-05-19T07:03:34.060Z,13.00
2023-05-19T07:06:07.758Z,13.10
2023-05-19T07:11:30.953Z,13.60
2023-05-19T07:13:59.311Z,13.90
2023-05-19T07:16:28.380Z,14.10
2023-05-19T07:18:56.673Z,14.40
2023-05-19T07:24:07.318Z,14.90
2023-05-19T07:26:35.075Z,15.20
2023-05-19T07:29:03.062Z,15.40
2023-05-19T07:31:31.465Z,15.60
2023-05-19T07:33:59.493Z,15.70
2023-05-19T07:36:32.087Z,15.90
2023-05-19T07:38:59.617Z,16.10
2023-05-19T07:41:27.336Z,16.20
2023-05-19T07:44:00.950Z,16.40
2023-05-19T07:46:28.691Z,16.50
2023-05-19T07:48:56.124Z,16.70
2023-05-19T07:51:23.482Z,16.80
2023-05-19T07:53:56.318Z,16.80
2023-05-19T07:56:24.871Z,16.90
2023-05-19T07:58:54.007Z,16.90
2023-05-19T08:01:21.681Z,16.90
2023-05-19T08:03:49.151Z,17.00
2023-05-19T08:06:16.702Z,17.00
2023-05-19T08:08:45.145Z,17.00
2023-05-19T08:11:14.432Z,17.10
2023-05-19T08:13:41.725Z,17.20
2023-05-19T08:16:09.279Z,17.40
2023-05-19T08:18:36.905Z,17.60
2023-05-19T08:21:05.020Z,17.90
2023-05-19T08:23:33.181Z,18.30
2023-05-19T08:26:04.809Z,18.70
2023-05-19T08:28:34.042Z,18.90
2023-05-19T08:31:01.778Z,19.20
2023-05-19T08:33:31.317Z,19.50
2023-05-19T08:35:59.165Z,19.70
2023-05-19T08:38:27.039Z,19.90
2023-05-19T08:40:55.419Z,20.10
2023-05-19T08:43:23.601Z,20.00
2023-05-19T08:45:54.447Z,20.00
2023-05-19T08:48:23.246Z,20.00
2023-05-19T08:51:03.145Z,20.10
2023-05-19T08:53:37.172Z,20.20
2023-05-19T08:56:10.650Z,20.40
2023-05-19T08:58:40.688Z,20.50
2023-05-19T09:01:13.398Z,20.50
2023-05-19T09:03:43.053Z,20.40
2023-05-19T09:06:14.821Z,20.40
2023-05-19T09:08:43.476Z,20.40
2023-05-19T09:11:11.073Z,20.50
2023-05-19T09:13:39.147Z,20.70
2023-05-19T09:16:09.041Z,20.90
2023-05-19T09:18:40.224Z,21.10
2023-05-19T09:21:08.173Z,21.00
2023-05-19T09:23:35.883Z,21.00
2023-05-19T09:26:05.224Z,21.10
2023-05-19T09:28:34.432Z,21.20
2023-05-19T09:31:03.430Z,21.20
2023-05-19T09:33:35.215Z,21.20
2023-05-19T09:36:04.071Z,21.40
2023-05-19T09:38:31.671Z,21.50
2023-05-19T09:40:59.908Z,21.70
2023-05-19T09:43:29.241Z,21.90
2023-05-19T09:46:00.744Z,22.00
2023-05-19T09:48:28.172Z,22.30
2023-05-19T09:50:58.141Z,22.40
2023-05-19T09:53:25.791Z,22.60
2023-05-19T09:55:59.219Z,22.70
2023-05-19T09:58:26.835Z,22.80
2023-05-19T10:00:56.906Z,22.70
2023-05-19T10:03:25.719Z,22.80
2023-05-19T10:05:53.883Z,23.00
2023-05-19T10:08:24.565Z,23.30
2023-05-19T10:10:52.246Z,23.50
2023-05-19T10:13:21.573Z,23.70
2023-05-19T10:18:25.641Z,23.90
2023-05-19T10:20:53.062Z,24.10
2023-05-19T10:23:20.182Z,24.30
2023-05-19T10:25:50.022Z,24.50
2023-05-19T10:28:21.539Z,24.80
2023-05-19T10:30:51.048Z,24.70
2023-05-19T10:33:21.448Z,24.50
2023-05-19T10:36:15.618Z,24.40
2023-05-19T10:38:53.479Z,24.20
2023-05-19T10:41:28.223Z,24.10
2023-05-19T10:44:10.261Z,23.90
2023-05-19T10:46:40.045Z,23.90
2023-05-19T10:49:08.520Z,23.90
2023-05-19T10:51:37.238Z,24.10
2023-05-19T10:54:12.107Z,24.40
2023-05-19T10:56:47.467Z,24.70
2023-05-19T10:59:33.487Z,24.90
2023-05-19T11:02:04.892Z,24.70
2023-05-19T11:04:50.929Z,24.50
2023-05-19T11:07:24.729Z,24.60
2023-05-19T11:10:23.116Z,24.80
2023-05-19T11:12:52.512Z,24.80
2023-05-19T11:15:26.116Z,24.60
2023-05-19T11:17:54.609Z,24.70
2023-05-19T11:20:24.822Z,24.60
2023-05-19T11:23:15.864Z,24.70
2023-05-19T11:25:47.965Z,25.00
2023-05-19T11:28:20.039Z,25.40
2023-05-19T11:30:52.473Z,25.60
2023-05-19T11:33:20.780Z,25.90
2023-05-19T11:35:50.700Z,26.10
2023-05-19T11:38:19.950Z,26.30
2023-05-19T11:40:48.609Z,26.30
2023-05-19T11:43:28.245Z,26.00
2023-05-19T11:45:56.259Z,25.90
2023-05-19T11:48:27.999Z,25.90
2023-05-19T11:50:57.217Z,26.20
2023-05-19T11:53:25.208Z,26.40
2023-05-19T11:55:52.797Z,26.50
2023-05-19T11:58:28.056Z,26.70
2023-05-19T12:00:56.092Z,27.10
2023-05-19T12:03:29.011Z,27.50
2023-05-19T12:05:57.400Z,27.60
2023-05-19T12:08:25.702Z,27.40
2023-05-19T12:10:53.506Z,27.20
2023-05-19T12:13:23.002Z,27.20
2023-05-19T12:15:53.709Z,27.00
2023-05-19T12:18:22.079Z,26.90
2023-05-19T12:20:50.265Z,26.90
2023-05-19T12:23:17.844Z,27.00
2023-05-19T12:25:45.639Z,27.10
2023-05-19T12:28:12.937Z,27.40
2023-05-19T12:30:41.534Z,27.60
2023-05-19T12:33:10.233Z,27.50
2023-05-19T12:35:38.445Z,27.20
2023-05-19T12:38:06.625Z,26.90
2023-05-19T12:40:37.948Z,26.60
2023-05-19T12:43:07.022Z,26.40
2023-05-19T12:45:35.711Z,26.30
2023-05-19T12:48:05.644Z,26.40
2023-05-19T12:50:35.019Z,26.60
2023-05-19T12:53:03.330Z,26.70
2023-05-19T12:55:30.947Z,26.90
2023-05-19T12:57:58.829Z,26.90
2023-05-19T13:00:29.125Z,27.00
2023-05-19T13:02:59.330Z,26.90
2023-05-19T13:05:28.439Z,26.70
2023-05-19T13:08:02.817Z,26.40
2023-05-19T13:10:31.652Z,26.00
2023-05-19T13:13:00.393Z,25.90
2023-05-19T13:15:34.647Z,26.10
2023-05-19T13:18:06.651Z,26.40
2023-05-19T13:20:34.984Z,26.60
2023-05-19T13:23:05.917Z,26.80
2023-05-19T13:25:34.596Z,27.20
2023-05-19T13:28:05.101Z,27.60
2023-05-19T13:30:33.063Z,27.90
2023-05-19T13:33:00.763Z,27.80
2023-05-19T13:35:29.709Z,27.60
2023-05-19T13:37:57.221Z,27.40
2023-05-19T13:40:28.503Z,26.90
2023-05-19T13:42:55.745Z,26.60
2023-05-19T13:45:23.083Z,26.60
2023-05-19T13:47:50.615Z,26.60
2023-05-19T13:50:19.075Z,26.90
2023-05-19T13:52:46.799Z,27.10
2023-05-19T13:55:17.510Z,27.40
2023-05-19T13:57:46.929Z,27.40
2023-05-19T14:00:15.376Z,27.20
2023-05-19T14:02:46.580Z,26.90
2023-05-19T14:05:14.120Z,26.90
2023-05-19T14:07:42.988Z,26.80
2023-05-19T14:10:10.913Z,26.90
2023-05-19T14:12:55.258Z,27.10
2023-05-19T14:15:33.118Z,27.10
2023-05-19T14:18:01.382Z,27.00
2023-05-19T14:20:29.565Z,27.00
2023-05-19T14:23:06.111Z,27.00
2023-05-19T14:25:34.965Z,26.90
2023-05-19T14:28:02.583Z,26.90
2023-05-19T14:30:31.542Z,26.90
2023-05-19T14:32:59.513Z,26.80
2023-05-19T14:35:28.379Z,26.70
2023-05-19T14:37:55.466Z,26.30
2023-05-19T14:40:22.622Z,26.00
2023-05-19T14:42:49.754Z,25.90
2023-05-19T14:45:17.222Z,25.70
2023-05-19T14:47:47.147Z,25.50
2023-05-19T14:50:15.211Z,25.30
2023-05-19T14:52:42.402Z,25.10
2023-05-19T14:55:12.602Z,24.90
2023-05-19T14:57:40.312Z,24.80
2023-05-19T15:00:10.403Z,24.60
2023-05-19T15:02:39.403Z,24.50
2023-05-19T15:05:09.801Z,24.40
2023-05-19T15:07:37.317Z,24.30
2023-05-19T15:10:05.627Z,24.30
2023-05-19T15:12:53.861Z,24.40
2023-05-19T15:15:22.024Z,24.60
2023-05-19T15:17:58.222Z,24.60
2023-05-19T15:20:29.366Z,24.60
2023-05-19T15:22:56.919Z,24.60
2023-05-19T15:25:24.154Z,24.60
2023-05-19T15:27:51.745Z,24.60
2023-05-19T15:30:19.381Z,24.40
2023-05-19T15:32:47.016Z,24.20
2023-05-19T15:35:14.507Z,24.00
2023-05-19T15:38:28.505Z,23.90
2023-05-19T15:40:57.359Z,23.70
2023-05-19T15:43:27.853Z,23.40
2023-05-19T15:45:56.284Z,23.30
2023-05-19T15:48:25.471Z,23.20
2023-05-19T15:50:54.072Z,23.20
2023-05-19T15:53:23.591Z,23.00
2023-05-19T15:55:51.471Z,22.90
2023-05-19T15:58:21.967Z,22.80
2023-05-19T16:00:49.560Z,22.80
2023-05-19T16:03:17.934Z,22.60
2023-05-19T16:05:45.520Z,22.60
2023-05-19T16:08:13.202Z,22.60
2023-05-19T16:10:42.333Z,22.60
2023-05-19T16:13:10.110Z,22.70
2023-05-19T16:15:37.849Z,22.80
2023-05-19T16:18:05.342Z,22.90
2023-05-19T16:20:32.882Z,22.90
2023-05-19T16:23:00.566Z,22.90
2023-05-19T16:25:30.171Z,22.90
2023-05-19T16:27:59.808Z,23.00
2023-05-19T16:30:31.917Z,23.00
2023-05-19T16:33:01.719Z,23.10
2023-05-19T16:35:29.977Z,23.10
2023-05-19T16:37:57.776Z,23.10
2023-05-19T16:40:25.719Z,23.10
2023-05-19T16:42:53.456Z,23.00
2023-05-19T16:45:27.168Z,22.90
2023-05-19T16:47:55.202Z,22.90
2023-05-19T16:50:25.896Z,22.80
2023-05-19T16:52:53.259Z,22.70
2023-05-19T16:55:20.610Z,22.60
2023-05-19T16:57:48.148Z,22.60
2023-05-19T17:00:16.299Z,22.50
2023-05-19T17:02:45.705Z,22.40
2023-05-19T17:05:15.312Z,22.40
2023-05-19T17:07:45.829Z,22.40
2023-05-19T17:10:14.252Z,22.40
2023-05-19T17:12:41.408Z,22.40
2023-05-19T17:15:09.267Z,22.40
2023-05-19T17:17:36.885Z,22.40
2023-05-19T17:20:20.588Z,22.30
2023-05-19T17:22:52.139Z,22.10
2023-05-19T17:25:19.792Z,21.90
2023-05-19T17:27:48.816Z,21.60
2023-05-19T17:30:17.483Z,21.50
2023-05-19T17:32:44.788Z,21.30
2023-05-19T17:35:13.720Z,21.10
2023-05-19T17:37:43.326Z,21.00
2023-05-19T17:40:15.030Z,20.90
2023-05-19T17:42:43.676Z,20.90
2023-05-19T17:45:12.461Z,20.70
2023-05-19T17:47:39.789Z,20.60
2023-05-19T17:50:18.358Z,20.50
2023-05-19T17:52:49.755Z,20.40
2023-05-19T17:55:18.769Z,20.20
2023-05-19T17:57:48.386Z,20.10
2023-05-19T18:00:16.416Z,19.90
2023-05-19T18:02:44.962Z,19.80
2023-05-19T18:05:17.743Z,19.70
2023-05-19T18:07:46.256Z,19.60
2023-05-19T18:15:42.047Z,19.20
2023-05-19T18:18:17.557Z,19.10
2023-05-19T18:20:48.832Z,19.10
2023-05-19T18:23:17.100Z,19.00
2023-05-19T18:25:50.349Z,18.90
2023-05-19T18:28:18.564Z,18.80
2023-05-19T18:35:11.852Z,18.70
2023-05-19T18:37:43.215Z,18.50
2023-05-19T18:40:11.464Z,18.50
2023-05-19T18:42:39.094Z,18.40
2023-05-19T18:45:08.149Z,18.40
2023-05-19T18:47:36.027Z,18.30
2023-05-19T18:50:04.650Z,18.20
2023-05-19T18:52:33.752Z,18.20
2023-05-19T18:55:02.884Z,18.20
2023-05-19T18:57:30.572Z,18.10
2023-05-19T19:00:02.297Z,18.00
2023-05-19T19:02:31.822Z,17.90
2023-05-19T19:05:05.672Z,17.90
2023-05-19T19:07:33.338Z,17.90
2023-05-19T19:10:02.652Z,17.80
2023-05-19T19:12:30.033Z,17.80
2023-05-19T19:15:08.963Z,17.80
2023-05-19T19:17:40.274Z,17.70
2023-05-19T19:20:09.737Z,17.70
2023-05-19T19:22:38.719Z,17.60
2023-05-19T19:25:09.458Z,17.60
2023-05-19T19:27:36.959Z,17.50
2023-05-19T19:30:05.056Z,17.60
2023-05-19T19:32:32.884Z,17.50
2023-05-19T19:35:00.436Z,17.50
2023-05-19T19:37:28.045Z,17.40
2023-05-19T19:39:55.710Z,17.40
2023-05-19T19:42:24.960Z,17.30
2023-05-19T19:44:57.542Z,17.30
2023-05-19T19:47:25.652Z,17.20
2023-05-19T19:49:53.834Z,17.20
2023-05-19T19:52:24.420Z,17.10
2023-05-19T19:54:52.269Z,17.10
2023-05-19T19:57:35.501Z,17.10
2023-05-19T20:00:21.596Z,17.00
2023-05-19T20:03:03.502Z,17.00
2023-05-19T20:05:33.517Z,16.90
2023-05-19T20:08:01.909Z,16.90
2023-05-19T20:10:29.856Z,16.90
2023-05-19T20:12:59.663Z,16.80
2023-05-19T20:15:29.946Z,16.70
2023-05-19T20:17:57.714Z,16.70
2023-05-19T20:20:26.067Z,16.70
2023-05-19T20:22:53.885Z,16.60
2023-05-19T20:25:22.153Z,16.60
2023-05-19T20:27:50.087Z,16.60
2023-05-19T20:30:18.025Z,16.50
2023-05-19T20:32:47.655Z,16.40
2023-05-19T20:35:15.532Z,16.40
2023-05-19T20:37:48.154Z,16.40
2023-05-19T20:40:18.075Z,16.30
2023-05-19T20:42:47.984Z,16.30
2023-05-19T20:45:16.052Z,16.20
2023-05-19T20:47:48.624Z,16.20
2023-05-19T20:50:16.904Z,16.20
2023-05-19T20:52:44.488Z,16.10
2023-05-19T20:55:13.658Z,16.00
2023-05-19T20:57:42.865Z,15.90
2023-05-19T21:00:11.984Z,16.00
2023-05-19T21:02:39.821Z,15.90
2023-05-19T21:05:29.622Z,15.90
2023-05-19T21:07:59.626Z,15.80
2023-05-19T21:10:27.435Z,15.80
2023-05-19T21:15:51.021Z,15.70
2023-05-19T21:18:18.517Z,15.60
2023-05-19T21:20:47.997Z,15.60
2023-05-19T21:23:17.054Z,15.50
2023-05-19T21:25:45.476Z,15.50
2023-05-19T21:28:13.062Z,15.40
2023-05-19T21:30:40.361Z,15.40
2023-05-19T21:33:14.409Z,15.40
2023-05-19T21:35:44.686Z,15.40
2023-05-19T21:38:23.304Z,15.30
2023-05-19T21:40:52.314Z,15.30
2023-05-19T21:43:20.293Z,15.30
2023-05-19T21:45:47.730Z,15.20
2023-05-19T21:48:17.780Z,15.20
2023-05-19T21:50:45.560Z,15.20
2023-05-19T21:53:16.445Z,15.10
2023-05-19T21:55:44.585Z,15.10
2023-05-19T21:58:12.205Z,15.00
2023-05-19T22:00:40.004Z,15.00
2023-05-19T22:03:07.653Z,15.00
2023-05-19T22:05:35.573Z,14.90
2023-05-19T22:08:04.211Z,14.90
2023-05-19T22:10:33.605Z,14.90
2023-05-19T22:13:01.376Z,14.90
2023-05-19T22:15:29.866Z,14.90
2023-05-19T22:17:57.170Z,14.90
2023-05-19T22:20:27.637Z,14.90
2023-05-19T22:22:55.383Z,14.80
2023-05-19T22:25:23.143Z,14.80
2023-05-19T22:27:52.964Z,14.80
2023-05-19T22:30:23.642Z,14.70
2023-05-19T22:32:51.211Z,14.70
2023-05-19T22:35:19.318Z,14.70
2023-05-19T22:37:46.987Z,14.60
2023-05-19T22:40:14.954Z,14.60
2023-05-19T22:42:42.608Z,14.60
2023-05-19T22:45:13.038Z,14.60
2023-05-19T22:47:41.138Z,14.60
2023-05-19T22:50:12.862Z,14.50
2023-05-19T22:52:40.868Z,14.50
2023-05-19T22:55:09.290Z,14.50
2023-05-19T22:57:37.077Z,14.40
2023-05-19T23:00:04.958Z,14.40
2023-05-19T23:02:34.330Z,14.40
2023-05-19T23:05:04.965Z,14.40
2023-05-19T23:07:32.999Z,14.30
2023-05-19T23:10:01.400Z,14.30
2023-05-19T23:12:29.058Z,14.20
2023-05-19T23:14:56.804Z,14.20
2023-05-19T23:17:24.574Z,14.20
2023-05-19T23:19:53.825Z,14.10
2023-05-19T23:22:21.248Z,14.10
2023-05-19T23:24:49.627Z,14.10
2023-05-19T23:27:19.930Z,14.00
2023-05-19T23:29:51.231Z,14.00
2023-05-19T23:32:20.597Z,14.00
2023-05-19T23:34:48.986Z,13.90
2023-05-19T23:37:20.773Z,13.90
2023-05-19T23:39:48.671Z,13.90
2023-05-19T23:42:16.166Z,13.90
2023-05-19T23:44:43.792Z,13.90
2023-05-19T23:47:11.510Z,13.80
2023-05-19T23:49:39.949Z,13.80
2023-05-19T23:52:07.907Z,13.80
2023-05-19T23:54:37.260Z,13.70
2023-05-19T23:57:06.248Z,13.70
2023-05-19T23:59:36.689Z,13.70
